Terminal Aerodrome Forecast
Issued by NWS Omaha/Valley, NE

Home | Current Version | Previous Version | Graphics & Text | Print | Product List | Glossary On
Versions: 1 2 3 4 5 6 7 8 9 10 11 12 13 14 15 16 17 18 19 20
000
FTUS43 KOAX 171729
TAFOFK
TAF
KOFK 171729Z 1718/1818 10015G25KT P6SM SCT150 BKN250
     FM180100 05010KT P6SM SCT015 BKN035
     FM180300 05010KT 6SM RA OVC020
      TEMPO 1806/1808 2SM -SN OVC007
     FM180800 35012KT 4SM -SN OVC010
      TEMPO 1808/1812 1SM -SN OVC005
     FM181500 35012KT P6SM OVC015=

USA.gov is the U.S. government's official web portal to all federal, state and local government web resources and services.